Time;durP1;ratioP1;P1;durP2;ratioP2;P2;SDS_P1;SDS_P2;PMS_P1;PMS_P2;Temp;Humidity;BMP_temperature;BMP_pressure;BME280_temperature;BME280_humidity;BME280_pressure;Samples;Min_cycle;Max_cycle;Signal;HPM_P1;HPM_P2
2020/12/18 00:01:26;;;;;;;27.85;24.67;;;;;;;14.68;73.54;101844.56;5132048;27;20030;-48
2020/12/18 00:03:52;;;;;;;26.38;23.75;;;;;;;14.82;73.02;101847.78;5132581;27;20054;-47
2020/12/18 00:06:22;;;;;;;25.83;22.80;;;;;;;14.75;73.29;101845.22;5131819;27;20110;-47
2020/12/18 00:08:48;;;;;;;27.83;24.58;;;;;;;14.77;73.29;101851.22;5132893;27;20039;-49
2020/12/18 00:11:26;;;;;;;35.72;24.25;;;;;;;14.78;73.70;101846.63;5132059;27;20395;-47
2020/12/18 00:13:52;;;;;;;28.80;24.00;;;;;;;14.62;74.15;101838.25;5132143;27;20039;-48
2020/12/18 00:16:18;;;;;;;24.58;20.40;;;;;;;14.62;74.02;101837.41;5132049;27;20113;-49
2020/12/18 00:18:44;;;;;;;22.48;20.38;;;;;;;14.72;73.77;101835.72;5127170;27;20039;-47
2020/12/18 00:21:10;;;;;;;31.27;21.85;;;;;;;14.65;73.89;101829.66;5130451;27;20138;-46
2020/12/18 00:23:35;;;;;;;25.02;19.92;;;;;;;14.66;74.31;101834.00;5132424;27;20039;-46
2020/12/18 00:26:01;;;;;;;22.05;17.40;;;;;;;14.79;74.06;101842.88;5131685;27;20061;-48
2020/12/18 00:28:26;;;;;;;44.92;29.38;;;;;;;14.70;73.74;101832.44;5132626;27;20043;-49
2020/12/18 00:30:52;;;;;;;28.67;25.50;;;;;;;14.59;74.84;101838.72;5132144;27;20035;-46
2020/12/18 00:33:17;;;;;;;27.73;22.98;;;;;;;14.63;74.60;101839.06;5131546;27;20043;-47
2020/12/18 00:35:43;;;;;;;27.15;24.08;;;;;;;14.66;74.44;101839.41;5132513;27;20131;-47
2020/12/18 00:38:09;;;;;;;27.40;23.35;;;;;;;14.57;75.02;101840.81;5131749;27;20031;-48
2020/12/18 00:40:36;;;;;;;28.58;19.80;;;;;;;14.54;75.40;101843.97;5132086;27;20031;-47
2020/12/18 00:43:01;;;;;;;24.08;21.02;;;;;;;14.56;75.19;101844.56;5131823;27;20110;-49
2020/12/18 00:45:27;;;;;;;25.60;19.88;;;;;;;14.56;75.03;101842.66;5127330;27;20076;-50
2020/12/18 00:47:52;;;;;;;21.15;19.02;;;;;;;14.52;75.59;101836.13;5127898;28;20099;-46
2020/12/18 00:50:18;;;;;;;25.75;19.77;;;;;;;14.61;75.03;101841.19;5124183;27;20033;-49
2020/12/18 00:52:43;;;;;;;39.25;21.00;;;;;;;14.68;74.86;101837.28;5131439;28;20043;-48
2020/12/18 00:55:09;;;;;;;28.67;21.17;;;;;;;14.65;75.05;101837.75;5129940;27;20031;-46
2020/12/18 00:57:34;;;;;;;21.98;16.40;;;;;;;14.79;74.73;101840.97;5125050;28;20087;-53
2020/12/18 00:59:59;;;;;;;25.63;16.40;;;;;;;14.68;74.79;101839.97;5131601;27;20083;-49
2020/12/18 01:02:25;;;;;;;19.50;17.25;;;;;;;14.74;74.91;101847.13;5132031;27;20045;-48
2020/12/18 01:04:52;;;;;;;27.85;17.50;;;;;;;14.64;75.14;101841.53;5131776;27;20495;-49
2020/12/18 01:07:17;;;;;;;26.23;17.52;;;;;;;14.53;75.21;101843.16;5131503;27;20466;-48
2020/12/18 01:09:43;;;;;;;35.20;19.13;;;;;;;14.52;75.40;101838.00;5131722;27;20038;-47
2020/12/18 01:12:12;;;;;;;23.88;18.95;;;;;;;14.59;75.35;101844.13;5131202;28;20045;-46
2020/12/18 01:14:37;;;;;;;26.42;18.65;;;;;;;14.57;75.14;101847.03;5123147;27;20031;-46
2020/12/18 01:17:03;;;;;;;25.10;18.05;;;;;;;14.52;75.40;101848.81;5131002;27;20027;-47
2020/12/18 01:19:28;;;;;;;18.17;15.23;;;;;;;14.54;75.68;101846.69;5122789;27;20031;-47
2020/12/18 01:21:54;;;;;;;17.63;15.77;;;;;;;14.66;75.34;101849.38;5122454;27;20028;-46
2020/12/18 01:24:19;;;;;;;20.00;17.58;;;;;;;14.73;74.58;101848.16;5131424;27;20585;-47
2020/12/18 01:26:48;;;;;;;20.67;13.98;;;;;;;14.80;74.67;101852.63;5134816;27;20038;-46
2020/12/18 01:29:14;;;;;;;22.70;15.50;;;;;;;14.69;74.89;101859.69;5135544;27;20039;-46
2020/12/18 01:31:39;;;;;;;20.20;16.55;;;;;;;14.66;74.79;101849.38;5135435;27;20027;-47
2020/12/18 01:34:05;;;;;;;23.02;18.05;;;;;;;14.62;75.63;101857.13;5135223;27;20038;-48
2020/12/18 01:36:30;;;;;;;17.27;15.55;;;;;;;14.60;75.06;101856.53;5127150;27;20027;-48
2020/12/18 01:38:56;;;;;;;20.35;18.20;;;;;;;14.59;74.99;101849.50;5135582;27;20377;-46
2020/12/18 01:41:22;;;;;;;21.08;18.85;;;;;;;14.72;74.95;101845.72;5126507;27;20023;-47
2020/12/18 01:43:47;;;;;;;25.35;16.75;;;;;;;14.92;74.04;101848.00;5135463;27;20039;-48
2020/12/18 01:46:14;;;;;;;17.80;15.82;;;;;;;14.87;74.41;101853.31;5134442;27;20031;-47
2020/12/18 01:48:42;;;;;;;19.05;15.57;;;;;;;14.77;74.75;101845.81;5120896;27;20067;-47
2020/12/18 01:51:10;;;;;;;19.67;17.10;;;;;;;14.70;75.04;101845.13;5122808;27;20428;-51
2020/12/18 01:53:37;;;;;;;15.57;13.55;;;;;;;14.66;74.88;101850.19;5114404;28;20055;-47
2020/12/18 01:56:04;;;;;;;21.98;13.90;;;;;;;14.68;75.09;101850.75;5131843;27;20070;-49
2020/12/18 01:58:32;;;;;;;14.40;12.02;;;;;;;14.67;75.31;101859.09;5135201;27;20084;-47
2020/12/18 02:01:06;;;;;;;18.48;14.18;;;;;;;14.62;75.50;101853.59;5134637;27;20023;-50
2020/12/18 02:03:32;;;;;;;24.98;13.27;;;;;;;14.63;75.33;101850.66;5135059;27;20054;-50
2020/12/18 02:06:03;;;;;;;20.05;13.70;;;;;;;14.60;75.60;101856.53;5126181;27;20476;-46
2020/12/18 02:08:29;;;;;;;19.30;12.80;;;;;;;14.68;75.02;101852.66;5135462;27;20031;-48
2020/12/18 02:10:56;;;;;;;14.38;10.05;;;;;;;14.76;75.25;101860.34;5134857;27;20031;-49
2020/12/18 02:13:25;;;;;;;11.35;9.63;;;;;;;14.69;75.28;101847.03;5134377;27;20031;-47
2020/12/18 02:15:52;;;;;;;19.02;9.43;;;;;;;14.82;74.86;101855.91;5134792;27;20042;-49
2020/12/18 02:18:22;;;;;;;12.57;9.20;;;;;;;14.77;75.05;101853.09;5132275;27;20085;-49
2020/12/18 02:20:48;;;;;;;13.77;10.10;;;;;;;14.89;74.49;101851.97;5130066;27;20119;-49
2020/12/18 02:23:14;;;;;;;17.73;15.93;;;;;;;14.87;74.77;101850.59;5133924;27;20035;-49
2020/12/18 02:25:40;;;;;;;13.07;11.77;;;;;;;14.92;74.74;101853.41;5134542;27;20473;-47
2020/12/18 02:28:08;;;;;;;12.32;9.38;;;;;;;14.80;74.65;101856.13;5134311;27;20035;-46
2020/12/18 02:30:33;;;;;;;12.55;10.15;;;;;;;14.81;75.04;101860.44;5134225;27;20443;-48
2020/12/18 02:33:04;;;;;;;17.50;9.82;;;;;;;14.72;75.20;101846.53;5133772;27;20031;-49
2020/12/18 02:35:29;;;;;;;9.52;8.52;;;;;;;14.70;75.28;101840.53;5134541;27;20027;-50
2020/12/18 02:37:54;;;;;;;19.85;10.65;;;;;;;14.80;75.44;101844.53;5134319;27;20068;-49
2020/12/18 02:40:20;;;;;;;21.23;13.93;;;;;;;14.72;75.21;101832.22;5134049;27;20031;-53
2020/12/18 02:42:45;;;;;;;15.25;12.85;;;;;;;14.68;75.42;101831.88;5125961;27;20039;-50
2020/12/18 02:45:11;;;;;;;26.45;13.43;;;;;;;14.66;75.32;101833.19;5133551;27;20027;-47
2020/12/18 02:47:36;;;;;;;16.42;12.98;;;;;;;14.62;75.69;101832.84;5133985;27;20400;-46
2020/12/18 02:50:02;;;;;;;24.60;11.30;;;;;;;14.56;75.95;101831.88;5126314;27;20055;-47
2020/12/18 02:52:28;;;;;;;11.85;10.35;;;;;;;14.61;75.90;101838.47;5134013;27;20039;-49
2020/12/18 02:54:53;;;;;;;18.20;12.27;;;;;;;14.56;75.93;101836.47;5134080;27;20050;-48
2020/12/18 02:57:19;;;;;;;12.57;9.85;;;;;;;14.71;75.51;101834.09;5133256;27;20067;-47
2020/12/18 02:59:44;;;;;;;13.43;11.10;;;;;;;14.75;75.62;101834.44;5134001;27;20023;-47
2020/12/18 03:02:10;;;;;;;16.92;10.40;;;;;;;14.81;75.16;101835.34;5133342;27;20103;-47
2020/12/18 03:04:35;;;;;;;12.88;7.43;;;;;;;14.86;75.02;101832.75;5133932;27;20081;-49
2020/12/18 03:07:00;;;;;;;10.93;7.45;;;;;;;14.74;75.21;101830.94;5133275;27;20113;-50
2020/12/18 03:09:26;;;;;;;8.75;7.90;;;;;;;14.71;75.72;101830.59;5133722;27;20027;-46
2020/12/18 03:11:51;;;;;;;16.67;7.70;;;;;;;14.63;76.47;101834.47;5133704;27;20028;-48
2020/12/18 03:14:17;;;;;;;8.48;7.53;;;;;;;14.63;76.20;101829.06;5133506;27;20468;-47
2020/12/18 03:16:42;;;;;;;12.38;9.32;;;;;;;14.59;76.03;101836.00;5133188;27;20046;-51
2020/12/18 03:19:08;;;;;;;15.00;11.07;;;;;;;14.64;75.87;101838.81;5125978;27;20043;-51
2020/12/18 03:21:33;;;;;;;12.52;11.30;;;;;;;14.85;75.17;101834.63;5128115;27;20087;-49
2020/12/18 03:23:59;;;;;;;19.27;10.70;;;;;;;14.85;75.28;101831.09;5133256;27;20337;-46
2020/12/18 03:26:24;;;;;;;14.65;12.55;;;;;;;14.72;75.46;101827.63;5133011;27;20038;-46
2020/12/18 03:28:49;;;;;;;13.18;11.43;;;;;;;14.66;76.33;101833.19;5133523;27;20087;-47
2020/12/18 03:31:15;;;;;;;13.45;10.27;;;;;;;14.77;75.87;101828.81;5126292;27;20039;-47
2020/12/18 03:33:41;;;;;;;13.27;7.55;;;;;;;14.74;75.86;101828.22;5133125;27;20035;-48
2020/12/18 03:36:07;;;;;;;12.55;7.35;;;;;;;14.90;75.15;101828.50;5132684;27;20034;-46
2020/12/18 03:38:32;;;;;;;15.50;6.00;;;;;;;14.84;75.39;101824.06;5133308;27;20035;-49
2020/12/18 03:40:57;;;;;;;16.42;7.68;;;;;;;14.82;75.63;101820.81;5132655;27;20058;-48
2020/12/18 03:43:23;;;;;;;9.48;6.35;;;;;;;14.86;75.76;101820.06;5132959;27;20043;-49
2020/12/18 03:45:48;;;;;;;15.00;5.90;;;;;;;14.80;75.97;101820.22;5132683;27;20034;-48
2020/12/18 03:48:14;;;;;;;13.07;8.40;;;;;;;14.67;76.36;101811.34;5130193;27;20437;-47
2020/12/18 03:50:39;;;;;;;6.82;6.05;;;;;;;14.71;75.61;101820.59;5126914;27;20032;-45
2020/12/18 03:53:05;;;;;;;11.27;5.35;;;;;;;14.66;75.87;101814.28;5132153;27;20385;-47
2020/12/18 03:55:30;;;;;;;11.60;5.95;;;;;;;14.60;75.93;101807.13;5127860;27;20459;-46
2020/12/18 03:57:56;;;;;;;9.32;6.50;;;;;;;14.64;76.20;101808.28;5112229;28;20028;-50
2020/12/18 04:00:21;;;;;;;7.15;5.88;;;;;;;14.67;75.90;101810.50;5132468;27;20076;-47
2020/12/18 04:02:46;;;;;;;8.75;7.10;;;;;;;14.69;75.81;101803.84;5131062;27;20122;-46
2020/12/18 04:05:12;;;;;;;7.88;6.47;;;;;;;14.65;75.20;101810.75;5132596;27;20031;-48
2020/12/18 04:07:37;;;;;;;7.35;6.25;;;;;;;14.66;75.69;101801.59;5132673;27;20046;-47
2020/12/18 04:10:04;;;;;;;11.95;6.60;;;;;;;14.62;75.86;101805.00;5131999;27;20031;-50
2020/12/18 04:12:29;;;;;;;13.00;7.10;;;;;;;14.65;75.30;101797.25;5132158;27;20454;-46
2020/12/18 04:14:55;;;;;;;8.00;5.68;;;;;;;14.68;75.56;101802.19;5132395;27;20107;-46
2020/12/18 04:17:21;;;;;;;10.50;6.85;;;;;;;14.65;75.08;101799.94;5131753;27;20065;-47
2020/12/18 04:19:46;;;;;;;18.67;6.03;;;;;;;14.60;75.15;101797.16;5124887;27;20027;-49
2020/12/18 04:22:12;;;;;;;7.15;5.07;;;;;;;14.48;75.81;101797.19;5131858;27;20267;-50
2020/12/18 04:24:37;;;;;;;9.55;7.03;;;;;;;14.59;75.46;101798.22;5132434;27;20049;-48
2020/12/18 04:27:03;;;;;;;11.35;5.57;;;;;;;14.56;75.19;101791.38;5131552;27;20038;-53
2020/12/18 04:29:28;;;;;;;10.27;3.83;;;;;;;14.63;75.22;101785.88;5132351;27;20035;-47
2020/12/18 04:31:54;;;;;;;11.15;5.40;;;;;;;14.51;75.67;101785.88;5132085;27;20039;-46
2020/12/18 04:34:19;;;;;;;14.90;5.45;;;;;;;14.53;74.92;101788.34;5131786;27;20035;-48
2020/12/18 04:36:45;;;;;;;9.23;5.70;;;;;;;14.56;75.09;101785.19;5132041;27;20066;-46
2020/12/18 04:39:10;;;;;;;6.95;3.75;;;;;;;14.55;75.16;101784.38;5132110;27;20483;-47
2020/12/18 04:41:36;;;;;;;13.55;3.88;;;;;;;14.70;74.39;101780.34;5132186;27;20132;-46
2020/12/18 04:44:02;;;;;;;5.50;3.38;;;;;;;14.67;74.43;101783.53;5131566;27;20073;-50
2020/12/18 04:46:30;;;;;;;9.50;4.50;;;;;;;14.59;74.53;101782.03;5124383;27;20027;-47
2020/12/18 04:48:56;;;;;;;7.22;5.47;;;;;;;14.59;74.79;101789.31;5124332;27;20083;-48
2020/12/18 04:51:26;;;;;;;12.63;5.00;;;;;;;14.61;74.49;101788.00;5131873;28;20122;-46
2020/12/18 04:53:53;;;;;;;17.98;5.32;;;;;;;14.52;74.89;101789.44;5123897;27;20044;-48
2020/12/18 04:56:26;;;;;;;9.02;6.60;;;;;;;14.52;74.50;101789.44;5122432;28;20027;-49
2020/12/18 04:58:53;;;;;;;13.38;7.03;;;;;;;14.53;74.69;101797.28;5132050;27;20529;-46
2020/12/18 05:01:24;;;;;;;8.20;5.88;;;;;;;14.52;74.68;101800.22;5135828;27;20114;-47
2020/12/18 05:03:51;;;;;;;17.27;7.53;;;;;;;14.40;74.79;101796.75;5136321;27;20418;-46
2020/12/18 05:06:17;;;;;;;10.55;7.60;;;;;;;14.45;75.04;101805.75;5124453;27;20032;-47
2020/12/18 05:08:43;;;;;;;23.10;7.90;;;;;;;14.52;74.39;101803.72;5115497;28;20040;-46
2020/12/18 05:11:25;;;;;;;9.85;6.72;;;;;;;14.54;74.32;101806.19;5124763;27;20027;-49
2020/12/18 05:13:52;;;;;;;7.63;5.45;;;;;;;14.79;73.58;101800.47;5135880;27;20035;-49
2020/12/18 05:16:23;;;;;;;10.60;5.30;;;;;;;14.83;73.10;101800.81;5135160;27;20468;-51
2020/12/18 05:18:50;;;;;;;14.52;4.38;;;;;;;14.89;72.64;101802.56;5129430;27;20133;-47
2020/12/18 05:21:16;;;;;;;13.88;3.92;;;;;;;14.99;71.92;101797.34;5130746;27;20032;-46
2020/12/18 05:23:46;;;;;;;10.43;6.65;;;;;;;15.01;71.84;101805.22;5127431;27;20122;-46
2020/12/18 05:26:14;;;;;;;9.48;8.32;;;;;;;14.93;72.06;101804.53;5125204;27;20063;-46
2020/12/18 05:28:42;;;;;;;12.60;9.18;;;;;;;14.78;72.55;101809.66;5129856;27;20105;-46
2020/12/18 05:31:13;;;;;;;18.38;10.35;;;;;;;14.61;73.27;101796.09;5114418;28;20024;-48
2020/12/18 05:33:39;;;;;;;18.48;13.60;;;;;;;14.48;74.08;101807.13;5114809;28;20031;-48
2020/12/18 05:36:05;;;;;;;18.10;10.57;;;;;;;14.51;73.54;101798.56;5116607;27;20043;-46
2020/12/18 05:38:32;;;;;;;14.05;12.05;;;;;;;14.51;73.72;101807.47;5135493;27;20096;-50
2020/12/18 05:40:59;;;;;;;13.68;12.32;;;;;;;14.53;73.49;101804.53;5133673;27;20112;-46
2020/12/18 05:43:25;;;;;;;12.52;8.70;;;;;;;14.74;73.06;101801.22;5135646;27;20047;-46
2020/12/18 05:45:51;;;;;;;16.05;10.88;;;;;;;14.75;72.82;101805.56;5135249;27;20031;-48
2020/12/18 05:48:16;;;;;;;21.67;11.63;;;;;;;14.66;73.25;101800.78;5132706;27;20047;-47
2020/12/18 05:50:42;;;;;;;26.00;15.07;;;;;;;14.66;72.85;101808.88;5129419;27;20042;-47
2020/12/18 05:53:10;;;;;;;15.63;13.27;;;;;;;14.66;72.93;101806.19;5134242;27;20080;-46
2020/12/18 05:55:40;;;;;;;17.23;13.02;;;;;;;14.67;73.02;101807.81;5135060;27;20035;-46
2020/12/18 05:58:11;;;;;;;19.20;10.63;;;;;;;14.78;72.43;101808.81;5134593;27;20530;-45
2020/12/18 06:00:37;;;;;;;16.45;6.40;;;;;;;14.82;72.07;101805.41;5134689;27;20031;-46
2020/12/18 06:03:09;;;;;;;14.95;4.70;;;;;;;14.91;71.05;101814.75;5134334;27;20038;-49
2020/12/18 06:05:40;;;;;;;14.50;6.85;;;;;;;15.09;71.16;101802.09;5129658;27;20054;-46
2020/12/18 06:08:14;;;;;;;17.70;8.88;;;;;;;15.09;70.99;101810.19;5113974;28;20045;-45
2020/12/18 06:10:40;;;;;;;15.88;6.53;;;;;;;14.99;71.30;101802.75;5128832;27;20536;-47
2020/12/18 06:13:06;;;;;;;16.90;8.80;;;;;;;15.04;71.31;101805.56;5127907;27;20053;-47
2020/12/18 06:15:33;;;;;;;25.38;12.13;;;;;;;14.98;71.62;101817.31;5134932;27;20035;-48
2020/12/18 06:18:03;;;;;;;13.35;11.82;;;;;;;14.92;71.73;101816.41;5133921;27;20056;-46
2020/12/18 06:20:34;;;;;;;22.40;12.93;;;;;;;14.88;71.75;101814.41;5119770;27;20023;-47
2020/12/18 06:23:04;;;;;;;17.88;13.63;;;;;;;14.89;71.84;101814.19;5133578;27;20027;-45
2020/12/18 06:25:30;;;;;;;17.25;14.00;;;;;;;14.80;71.78;101822.94;5134234;27;20469;-48
2020/12/18 06:28:01;;;;;;;24.38;12.70;;;;;;;14.80;72.33;101817.53;5134261;27;20031;-48
2020/12/18 06:30:27;;;;;;;13.73;10.33;;;;;;;14.81;72.32;101819.16;5125861;27;20114;-49
2020/12/18 06:32:53;;;;;;;12.43;8.85;;;;;;;14.77;72.45;101816.13;5125822;27;20756;-46
2020/12/18 06:35:27;;;;;;;9.57;8.63;;;;;;;14.74;72.22;101811.19;5131102;27;20027;-46
2020/12/18 06:37:53;;;;;;;9.60;8.52;;;;;;;14.75;72.36;101813.66;5117003;27;20039;-48
2020/12/18 06:40:33;;;;;;;11.25;7.88;;;;;;;14.76;72.38;101819.84;5133270;27;20096;-46
2020/12/18 06:42:59;;;;;;;15.80;9.10;;;;;;;14.72;72.41;101821.41;5133342;27;20493;-49
2020/12/18 06:45:25;;;;;;;11.68;8.35;;;;;;;14.76;72.05;101822.56;5127908;27;20027;-48
2020/12/18 06:47:51;;;;;;;23.77;7.75;;;;;;;14.86;72.08;101830.03;5128983;27;20035;-48
2020/12/18 06:50:18;;;;;;;24.08;9.32;;;;;;;14.80;72.14;101833.72;5125128;27;20024;-48
2020/12/18 06:52:57;;;;;;;19.60;8.27;;;;;;;14.65;72.40;101832.34;5133398;27;20138;-47
2020/12/18 06:55:26;;;;;;;28.58;12.43;;;;;;;14.65;73.01;101836.94;5117077;27;20034;-46
2020/12/18 06:58:04;;;;;;;27.92;24.98;;;;;;;14.57;73.31;101838.09;5100606;27;20055;-44
2020/12/18 07:00:31;;;;;;;229.43;160.35;;;;;;;14.69;72.38;101833.53;5111596;27;20035;-44
2020/12/18 07:02:57;;;;;;;404.80;292.23;;;;;;;15.26;73.14;101832.66;5125549;27;20053;-49
2020/12/18 07:05:31;;;;;;;271.65;174.85;;;;;;;14.87;72.82;101832.50;5129544;27;20035;-46
2020/12/18 07:08:01;;;;;;;290.05;217.95;;;;;;;14.68;73.20;101833.75;5118873;27;20078;-50
2020/12/18 07:10:51;;;;;;;351.98;292.83;;;;;;;14.86;72.33;101832.75;5114563;27;20102;-47
2020/12/18 07:13:20;;;;;;;227.38;183.05;;;;;;;14.82;72.39;101834.28;5127863;27;20043;-47
2020/12/18 07:15:46;;;;;;;329.65;261.67;;;;;;;14.85;71.91;101837.34;5128305;27;20038;-50
2020/12/18 07:18:24;;;;;;;288.90;198.35;;;;;;;14.75;72.19;101832.53;5126861;27;20047;-50
2020/12/18 07:20:52;;;;;;;273.50;201.73;;;;;;;14.69;72.43;101829.97;5123809;27;20027;-46
2020/12/18 07:23:18;;;;;;;309.05;205.63;;;;;;;14.54;72.69;101831.28;5127641;27;20049;-47
2020/12/18 07:25:44;;;;;;;238.18;177.40;;;;;;;14.61;72.52;101836.59;5120452;27;20431;-47
2020/12/18 07:28:10;;;;;;;245.60;173.77;;;;;;;14.66;72.57;101836.69;5131107;27;20117;-47
2020/12/18 07:30:41;;;;;;;258.20;173.82;;;;;;;14.65;72.73;101842.31;5132935;27;20043;-47
2020/12/18 07:33:07;;;;;;;276.90;165.88;;;;;;;14.67;72.54;101841.03;5132302;27;20060;-46
2020/12/18 07:35:41;;;;;;;217.20;143.98;;;;;;;14.62;72.44;101854.44;5132989;27;20122;-47
2020/12/18 07:38:13;;;;;;;179.40;134.05;;;;;;;14.65;72.33;101853.94;5126613;27;20114;-47
2020/12/18 07:40:39;;;;;;;199.35;127.68;;;;;;;14.65;72.30;101859.34;5132635;27;20095;-47
2020/12/18 07:43:12;;;;;;;171.50;119.38;;;;;;;14.63;72.24;101857.94;5132593;27;20043;-47
2020/12/18 07:45:40;;;;;;;173.40;116.47;;;;;;;14.57;72.27;101857.00;5126245;27;20027;-50
2020/12/18 07:48:10;;;;;;;295.38;160.60;;;;;;;14.59;72.50;101859.50;5131325;27;20463;-45
2020/12/18 07:50:35;;;;;;;298.45;175.68;;;;;;;14.64;71.76;101863.13;5126022;27;20035;-51
2020/12/18 07:53:11;;;;;;;245.50;146.68;;;;;;;14.64;72.01;101857.72;5131918;27;20071;-46
2020/12/18 07:55:37;;;;;;;178.23;114.43;;;;;;;14.52;71.86;101863.09;5121771;27;20043;-46
2020/12/18 07:58:03;;;;;;;215.52;115.47;;;;;;;14.57;71.84;101867.78;5120474;27;20131;-48
2020/12/18 08:00:29;;;;;;;150.82;98.30;;;;;;;14.59;72.04;101873.00;5124075;27;20092;-48
2020/12/18 08:02:55;;;;;;;180.50;115.15;;;;;;;14.68;71.60;101875.06;5132141;27;20047;-50
2020/12/18 08:05:23;;;;;;;203.85;126.18;;;;;;;14.81;71.42;101870.44;5119745;27;20038;-49
2020/12/18 08:07:58;;;;;;;162.73;113.25;;;;;;;14.77;71.05;101867.41;5124325;27;20035;-47
2020/12/18 08:10:23;;;;;;;286.77;185.02;;;;;;;14.72;71.40;101875.41;5114531;27;20035;-47
2020/12/18 08:12:50;;;;;;;342.33;185.77;;;;;;;14.78;71.70;101881.72;5124987;27;20529;-46
2020/12/18 08:15:16;;;;;;;352.73;223.75;;;;;;;14.83;71.24;101871.00;5130589;27;20031;-49
2020/12/18 08:17:42;;;;;;;328.77;207.95;;;;;;;14.85;71.37;101874.28;5131942;27;20031;-46
2020/12/18 08:20:11;;;;;;;358.77;215.85;;;;;;;14.85;70.91;101871.59;5123707;27;20045;-46
2020/12/18 08:22:43;;;;;;;223.75;155.82;;;;;;;14.75;71.48;101878.44;5131946;27;20062;-45
2020/12/18 08:25:10;;;;;;;217.95;144.48;;;;;;;14.83;71.46;101888.06;5131773;27;20031;-46
2020/12/18 08:27:47;;;;;;;393.38;235.30;;;;;;;14.88;70.97;101881.91;5131861;27;20038;-47
2020/12/18 08:30:16;;;;;;;513.33;326.25;;;;;;;14.93;70.84;101876.63;5131723;27;20520;-52
2020/12/18 08:32:47;;;;;;;353.48;213.60;;;;;;;14.96;70.74;101884.25;5131640;27;20444;-47
2020/12/18 08:35:19;;;;;;;385.05;211.98;;;;;;;14.98;70.65;101884.00;5130958;27;20109;-49
2020/12/18 08:37:44;;;;;;;227.63;141.23;;;;;;;14.92;71.37;101885.81;5132111;27;20392;-49
2020/12/18 08:40:28;;;;;;;190.60;103.72;;;;;;;14.88;71.36;101885.47;5121877;27;20031;-46
2020/12/18 08:43:01;;;;;;;170.82;107.13;;;;;;;14.93;71.07;101890.13;5131711;27;20133;-48
2020/12/18 08:45:27;;;;;;;158.07;94.70;;;;;;;14.88;71.33;101890.88;5131553;27;20392;-46
2020/12/18 08:47:53;;;;;;;174.30;99.28;;;;;;;14.90;71.53;101894.13;5131406;27;20415;-45
2020/12/18 08:50:18;;;;;;;152.73;88.93;;;;;;;14.92;71.45;101897.41;5123824;27;20035;-45
2020/12/18 08:52:45;;;;;;;131.85;84.43;;;;;;;14.93;71.62;101890.13;5131666;27;20073;-48
2020/12/18 08:55:12;;;;;;;142.35;82.32;;;;;;;15.01;71.06;101886.22;5130902;27;20511;-48
2020/12/18 08:57:38;;;;;;;129.13;75.00;;;;;;;15.05;70.93;101884.69;5131648;27;20039;-47
2020/12/18 09:00:16;;;;;;;85.72;58.95;;;;;;;14.84;71.48;101897.78;5130917;27;20043;-47
2020/12/18 09:02:49;;;;;;;86.25;51.75;;;;;;;14.86;71.80;101892.16;5131512;27;20126;-47
2020/12/18 09:05:18;;;;;;;139.68;90.13;;;;;;;14.77;72.04;101891.69;5131461;27;20508;-50
2020/12/18 09:08:08;;;;;;;119.55;73.70;;;;;;;14.88;72.09;101895.41;5131570;27;20080;-50
2020/12/18 09:10:40;;;;;;;103.63;66.38;;;;;;;14.96;71.70;101895.06;5126031;27;20057;-49
2020/12/18 09:13:15;;;;;;;82.10;59.70;;;;;;;14.93;72.17;101906.31;5131180;27;20066;-48
2020/12/18 09:15:42;;;;;;;94.05;64.18;;;;;;;14.88;72.30;101901.66;5131383;28;20388;-52
2020/12/18 09:18:13;;;;;;;119.97;74.03;;;;;;;15.03;71.39;101898.41;5130354;27;20533;-48
2020/12/18 09:20:41;;;;;;;186.65;97.47;;;;;;;15.08;71.75;101903.94;5117585;28;20042;-50
2020/12/18 09:23:12;;;;;;;112.82;70.05;;;;;;;15.05;71.75;101904.41;5131107;27;20418;-46
2020/12/18 09:25:47;;;;;;;;;;;;;;;14.92;72.04;101910.09;5131893;27;20043;-48
2020/12/18 09:28:17;;;;;;;179.02;112.72;;;;;;;15.03;71.80;101906.53;5131078;27;19907;-47
2020/12/18 09:30:50;;;;;;;189.07;111.28;;;;;;;15.11;71.75;101913.41;5131582;27;20123;-47
2020/12/18 09:33:27;;;;;;;88.82;47.08;;;;;;;15.17;71.19;101908.94;5128023;27;20085;-48
2020/12/18 09:35:56;;;;;;;68.45;39.58;;;;;;;15.14;71.45;101910.25;5123401;28;20189;-49
2020/12/18 09:38:24;;;;;;;60.00;39.38;;;;;;;15.20;71.39;101912.00;5130866;28;20080;-47
2020/12/18 09:40:50;;;;;;;78.30;47.40;;;;;;;15.21;71.37;101910.91;5131435;27;20122;-49
2020/12/18 09:43:16;;;;;;;82.90;51.92;;;;;;;15.24;71.34;101917.72;5131007;27;20575;-49
2020/12/18 09:45:42;;;;;;;86.00;54.28;;;;;;;15.22;71.66;101917.97;5131619;27;20045;-45
2020/12/18 09:48:08;;;;;;;46.53;30.15;;;;;;;15.26;71.62;101916.41;5133217;27;20114;-50
2020/12/18 09:50:33;;;;;;;86.63;45.80;;;;;;;15.30;71.25;101912.19;5127759;27;20083;-49
2020/12/18 09:52:58;;;;;;;124.88;63.78;;;;;;;15.30;71.38;101920.28;5134136;27;20027;-47
2020/12/18 09:55:24;;;;;;;67.50;38.33;;;;;;;15.34;70.67;101917.91;5134883;27;20073;-47
2020/12/18 09:57:51;;;;;;;84.72;44.40;;;;;;;15.40;70.79;101935.03;5135125;27;20103;-50
2020/12/18 10:00:16;;;;;;;75.10;41.70;;;;;;;15.40;71.05;101925.03;5133764;27;20471;-51
2020/12/18 10:02:41;;;;;;;85.50;42.05;;;;;;;15.40;71.09;101927.75;5134635;27;20038;-50
2020/12/18 10:05:07;;;;;;;44.28;23.27;;;;;;;15.37;71.33;101916.59;5134110;27;20488;-46
2020/12/18 10:07:33;;;;;;;53.15;29.77;;;;;;;15.42;71.10;101928.31;5134620;27;20034;-51
2020/12/18 10:09:58;;;;;;;107.30;63.15;;;;;;;15.41;71.39;101924.00;5134320;27;20031;-47
2020/12/18 10:12:24;;;;;;;81.32;52.38;;;;;;;15.48;71.13;101929.25;5118102;27;20041;-45
2020/12/18 10:14:49;;;;;;;48.17;27.48;;;;;;;15.46;71.35;101932.19;5134106;27;20446;-50
2020/12/18 10:17:14;;;;;;;38.55;23.15;;;;;;;15.44;71.05;101922.66;5133821;27;20027;-47
2020/12/18 10:19:40;;;;;;;48.13;33.63;;;;;;;15.47;71.13;101924.91;5126861;27;20488;-48
2020/12/18 10:22:06;;;;;;;37.40;26.50;;;;;;;15.53;70.80;101923.91;5133358;27;20063;-45
2020/12/18 10:24:31;;;;;;;29.15;22.00;;;;;;;15.56;70.47;101920.72;5134545;27;20065;-47
2020/12/18 10:26:57;;;;;;;37.67;25.80;;;;;;;15.56;70.27;101917.22;5133898;27;20038;-47
2020/12/18 10:29:22;;;;;;;53.55;31.70;;;;;;;15.59;70.79;101912.13;5133976;27;20091;-45
2020/12/18 10:31:55;;;;;;;36.80;24.35;;;;;;;15.60;70.31;101918.34;5134301;27;20078;-46
2020/12/18 10:34:21;;;;;;;17.65;13.43;;;;;;;15.65;70.66;101907.63;5133057;27;20070;-48
2020/12/18 10:36:51;;;;;;;19.33;10.70;;;;;;;15.83;70.68;101901.19;5134023;27;20093;-47
2020/12/18 10:39:17;;;;;;;15.15;8.68;;;;;;;16.34;68.47;101898.41;5125506;27;20504;-52
2020/12/18 10:41:43;;;;;;;18.67;15.18;;;;;;;16.48;67.78;101902.41;5134067;27;20058;-48
2020/12/18 10:44:09;;;;;;;19.00;12.98;;;;;;;16.39;68.71;101895.78;5133658;27;20461;-46
2020/12/18 10:46:35;;;;;;;15.55;9.13;;;;;;;16.54;67.39;101889.75;5133507;27;20042;-48
2020/12/18 10:49:00;;;;;;;19.38;6.13;;;;;;;17.04;64.89;101879.78;5125757;27;20036;-50
2020/12/18 10:51:26;;;;;;;22.15;10.70;;;;;;;17.19;65.75;101879.94;5133869;27;20035;-46
2020/12/18 10:53:51;;;;;;;12.25;9.95;;;;;;;17.42;65.21;101872.56;5133624;27;20043;-47
2020/12/18 10:56:17;;;;;;;64.55;42.38;;;;;;;17.77;64.30;101869.31;5132818;27;20035;-50
2020/12/18 10:58:42;;;;;;;58.47;40.33;;;;;;;18.10;63.70;101868.19;5133409;27;20445;-46
2020/12/18 11:01:08;;;;;;;35.97;29.40;;;;;;;18.38;61.35;101866.19;5132925;27;20058;-48
2020/12/18 11:03:33;;;;;;;27.40;21.80;;;;;;;18.46;60.59;101867.56;5133276;27;20096;-48
2020/12/18 11:06:03;;;;;;;38.65;21.55;;;;;;;18.73;59.67;101853.81;5133213;27;20068;-46
2020/12/18 11:08:29;;;;;;;14.53;11.53;;;;;;;19.05;58.77;101861.00;5118677;27;20468;-46
2020/12/18 11:10:55;;;;;;;13.88;9.00;;;;;;;19.29;58.06;101855.03;5133103;27;20031;-51